sensor_id;sensor_type;location;lat;lon;timestamp;pressure;altitude;pressure_sealevel;temperature;humidity
59654;BME280;66556;52.008;5.432;2023-03-22T00:02:59;100955.0;;;20.59;42.33
59654;BME280;66556;52.008;5.432;2023-03-22T00:04:35;100955.0;;;21.06;41.51
59654;BME280;66556;52.008;5.432;2023-03-22T00:06:11;100951.0;;;20.46;42.64
59654;BME280;66556;52.008;5.432;2023-03-22T00:09:24;100945.0;;;20.43;42.69
59654;BME280;66556;52.008;5.432;2023-03-22T00:11:00;100944.0;;;20.43;42.83
59654;BME280;66556;52.008;5.432;2023-03-22T00:12:37;100934.0;;;20.61;42.65
59654;BME280;66556;52.008;5.432;2023-03-22T00:15:50;100933.0;;;21.42;40.57
59654;BME280;66556;52.008;5.432;2023-03-22T00:17:26;100930.0;;;20.69;41.87
59654;BME280;66556;52.008;5.432;2023-03-22T00:19:02;100933.0;;;20.18;43.28
59654;BME280;66556;52.008;5.432;2023-03-22T00:20:46;100930.0;;;20.41;42.73
59654;BME280;66556;52.008;5.432;2023-03-22T00:24:00;100924.0;;;20.45;42.42
59654;BME280;66556;52.008;5.432;2023-03-22T00:25:36;100923.0;;;20.58;42.03
59654;BME280;66556;52.008;5.432;2023-03-22T00:27:12;100925.0;;;20.96;40.81
59654;BME280;66556;52.008;5.432;2023-03-22T00:30:24;100922.0;;;20.79;41.75
59654;BME280;66556;52.008;5.432;2023-03-22T00:32:00;100921.0;;;20.94;41.02
59654;BME280;66556;52.008;5.432;2023-03-22T00:33:36;100917.0;;;20.55;42.14
59654;BME280;66556;52.008;5.432;2023-03-22T00:35:13;100917.0;;;20.55;42.19
59654;BME280;66556;52.008;5.432;2023-03-22T00:38:26;100916.0;;;20.65;41.67
59654;BME280;66556;52.008;5.432;2023-03-22T00:40:03;100917.0;;;20.34;42.3
59654;BME280;66556;52.008;5.432;2023-03-22T00:41:41;100910.0;;;20.45;42.03
59654;BME280;66556;52.008;5.432;2023-03-22T00:44:53;100912.0;;;20.65;41.72
59654;BME280;66556;52.008;5.432;2023-03-22T00:46:29;100911.0;;;20.5;41.78
59654;BME280;66556;52.008;5.432;2023-03-22T00:48:07;100910.0;;;20.52;42.13
59654;BME280;66556;52.008;5.432;2023-03-22T00:51:19;100908.0;;;20.45;42.08
59654;BME280;66556;52.008;5.432;2023-03-22T00:52:55;100905.0;;;20.07;43.06
59654;BME280;66556;52.008;5.432;2023-03-22T00:54:31;100900.0;;;20.43;42.3
59654;BME280;66556;52.008;5.432;2023-03-22T00:56:08;100899.0;;;20.3;42.56
59654;BME280;66556;52.008;5.432;2023-03-22T00:59:21;100896.0;;;19.81;44.1
59654;BME280;66556;52.008;5.432;2023-03-22T01:00:57;100888.0;;;20.43;42.54
59654;BME280;66556;52.008;5.432;2023-03-22T01:02:33;100887.0;;;20.25;42.99
59654;BME280;66556;52.008;5.432;2023-03-22T01:05:46;100884.0;;;20.27;42.87
59654;BME280;66556;52.008;5.432;2023-03-22T01:07:23;100881.0;;;20.63;42.18
59654;BME280;66556;52.008;5.432;2023-03-22T01:09:00;100877.0;;;20.36;42.69
59654;BME280;66556;52.008;5.432;2023-03-22T01:12:18;100869.0;;;20.25;42.43
59654;BME280;66556;52.008;5.432;2023-03-22T01:13:55;100863.0;;;20.02;43.3
59654;BME280;66556;52.008;5.432;2023-03-22T01:15:31;100864.0;;;20.14;43.18
59654;BME280;66556;52.008;5.432;2023-03-22T01:17:08;100861.0;;;19.87;44.08
59654;BME280;66556;52.008;5.432;2023-03-22T01:20:22;100852.0;;;20.05;43.44
59654;BME280;66556;52.008;5.432;2023-03-22T01:21:59;100852.0;;;20.27;43.02
59654;BME280;66556;52.008;5.432;2023-03-22T01:23:36;100855.0;;;20.13;42.83
59654;BME280;66556;52.008;5.432;2023-03-22T01:26:50;100853.0;;;19.84;43.76
59654;BME280;66556;52.008;5.432;2023-03-22T01:28:26;100848.0;;;19.8;43.94
59654;BME280;66556;52.008;5.432;2023-03-22T01:30:03;100842.0;;;19.77;44.33
59654;BME280;66556;52.008;5.432;2023-03-22T01:33:15;100837.0;;;20.07;43.22
59654;BME280;66556;52.008;5.432;2023-03-22T01:34:52;100835.0;;;20.14;43.23
59654;BME280;66556;52.008;5.432;2023-03-22T01:36:29;100831.0;;;20.07;43.22
59654;BME280;66556;52.008;5.432;2023-03-22T01:38:05;100832.0;;;19.93;43.78
59654;BME280;66556;52.008;5.432;2023-03-22T01:41:18;100830.0;;;19.57;44.53
59654;BME280;66556;52.008;5.432;2023-03-22T01:42:54;100821.0;;;19.41;45.3
59654;BME280;66556;52.008;5.432;2023-03-22T01:44:31;100815.0;;;19.87;44.42
59654;BME280;66556;52.008;5.432;2023-03-22T01:47:47;100806.0;;;20.31;43.09
59654;BME280;66556;52.008;5.432;2023-03-22T01:49:27;100800.0;;;19.93;44.01
59654;BME280;66556;52.008;5.432;2023-03-22T01:51:09;100796.0;;;20.96;41.4
59654;BME280;66556;52.008;5.432;2023-03-22T01:52:47;100791.0;;;20.64;42.1
59654;BME280;66556;52.008;5.432;2023-03-22T01:56:10;100789.0;;;20.41;42.69
59654;BME280;66556;52.008;5.432;2023-03-22T01:57:48;100781.0;;;20.38;42.77
59654;BME280;66556;52.008;5.432;2023-03-22T01:59:25;100782.0;;;20.84;42.05
59654;BME280;66556;52.008;5.432;2023-03-22T02:01:04;100776.0;;;20.14;43.43
59654;BME280;66556;52.008;5.432;2023-03-22T02:04:20;100768.0;;;20.95;41.81
59654;BME280;66556;52.008;5.432;2023-03-22T02:05:58;100766.0;;;20.73;42.25
59654;BME280;66556;52.008;5.432;2023-03-22T02:07:35;100763.0;;;21.11;41.4
59654;BME280;66556;52.008;5.432;2023-03-22T02:10:51;100758.0;;;20.25;43.87
59654;BME280;66556;52.008;5.432;2023-03-22T02:12:32;100750.0;;;20.45;43.78
59654;BME280;66556;52.008;5.432;2023-03-22T02:14:27;100751.0;;;19.88;45.15
59654;BME280;66556;52.008;5.432;2023-03-22T02:16:28;100751.0;;;19.86;45.63
59654;BME280;66556;52.008;5.432;2023-03-22T02:18:24;100748.0;;;20.29;44.47
59654;BME280;66556;52.008;5.432;2023-03-22T02:20:39;100747.0;;;20.03;45.25
59654;BME280;66556;52.008;5.432;2023-03-22T02:24:18;100744.0;;;20.09;45.44
59654;BME280;66556;52.008;5.432;2023-03-22T02:27:50;100739.0;;;20.25;45.39
59654;BME280;66556;52.008;5.432;2023-03-22T02:31:57;100739.0;;;20.11;46.11
59654;BME280;66556;52.008;5.432;2023-03-22T02:33:58;100738.0;;;20.23;45.92
59654;BME280;66556;52.008;5.432;2023-03-22T02:39:07;100726.0;;;20.04;46.94
59654;BME280;66556;52.008;5.432;2023-03-22T02:41:01;100724.0;;;20.27;46.57
59654;BME280;66556;52.008;5.432;2023-03-22T02:44:39;100727.0;;;20.11;47.04
59654;BME280;66556;52.008;5.432;2023-03-22T02:46:21;100717.0;;;20.36;47.04
59654;BME280;66556;52.008;5.432;2023-03-22T02:48:05;100713.0;;;20.37;46.73
59654;BME280;66556;52.008;5.432;2023-03-22T02:49:47;100719.0;;;20.2;47.37
59654;BME280;66556;52.008;5.432;2023-03-22T02:51:32;100714.0;;;20.09;48.06
59654;BME280;66556;52.008;5.432;2023-03-22T02:54:55;100702.0;;;19.95;48.34
59654;BME280;66556;52.008;5.432;2023-03-22T02:56:40;100706.0;;;20.2;47.83
59654;BME280;66556;52.008;5.432;2023-03-22T02:58:22;100702.0;;;20.45;47.23
59654;BME280;66556;52.008;5.432;2023-03-22T03:00:02;100696.0;;;20.37;47.72
59654;BME280;66556;52.008;5.432;2023-03-22T03:01:43;100687.0;;;20.32;47.98
59654;BME280;66556;52.008;5.432;2023-03-22T03:05:03;100688.0;;;20.25;47.89
59654;BME280;66556;52.008;5.432;2023-03-22T03:06:42;100691.0;;;20.25;47.98
59654;BME280;66556;52.008;5.432;2023-03-22T03:08:21;100682.0;;;20.13;48.61
59654;BME280;66556;52.008;5.432;2023-03-22T03:11:34;100684.0;;;20.59;47.55
59654;BME280;66556;52.008;5.432;2023-03-22T03:13:10;100688.0;;;20.82;46.72
59654;BME280;66556;52.008;5.432;2023-03-22T03:14:49;100684.0;;;20.58;47.37
59654;BME280;66556;52.008;5.432;2023-03-22T03:16:27;100682.0;;;20.7;47.48
59654;BME280;66556;52.008;5.432;2023-03-22T03:20:03;100684.0;;;20.56;47.48
59654;BME280;66556;52.008;5.432;2023-03-22T03:21:55;100692.0;;;20.7;47.33
59654;BME280;66556;52.008;5.432;2023-03-22T03:23:43;100692.0;;;20.38;48.2
59654;BME280;66556;52.008;5.432;2023-03-22T03:25:27;100695.0;;;20.47;48.15
59654;BME280;66556;52.008;5.432;2023-03-22T03:27:13;100689.0;;;21.15;46.47
59654;BME280;66556;52.008;5.432;2023-03-22T03:28:56;100691.0;;;20.59;47.48
59654;BME280;66556;52.008;5.432;2023-03-22T03:32:21;100695.0;;;21.04;46.65
59654;BME280;66556;52.008;5.432;2023-03-22T03:34:09;100695.0;;;21.02;46.12
59654;BME280;66556;52.008;5.432;2023-03-22T03:35:51;100698.0;;;20.68;47.3
59654;BME280;66556;52.008;5.432;2023-03-22T03:37:33;100685.0;;;21.33;45.22
59654;BME280;66556;52.008;5.432;2023-03-22T03:40:53;100693.0;;;20.9;46.74
59654;BME280;66556;52.008;5.432;2023-03-22T03:42:33;100692.0;;;20.91;46.88
59654;BME280;66556;52.008;5.432;2023-03-22T03:44:12;100689.0;;;20.81;46.9
59654;BME280;66556;52.008;5.432;2023-03-22T03:45:50;100684.0;;;21.16;46.02
59654;BME280;66556;52.008;5.432;2023-03-22T03:49:04;100690.0;;;20.78;46.65
59654;BME280;66556;52.008;5.432;2023-03-22T03:50:43;100693.0;;;20.69;46.87
59654;BME280;66556;52.008;5.432;2023-03-22T03:52:20;100689.0;;;20.75;47.47
59654;BME280;66556;52.008;5.432;2023-03-22T03:53:56;100684.0;;;20.72;47.16
59654;BME280;66556;52.008;5.432;2023-03-22T03:57:08;100681.0;;;20.75;47.12
59654;BME280;66556;52.008;5.432;2023-03-22T03:58:44;100680.0;;;20.65;47.67
59654;BME280;66556;52.008;5.432;2023-03-22T04:00:20;100683.0;;;20.65;47.33
59654;BME280;66556;52.008;5.432;2023-03-22T04:03:34;100680.0;;;20.43;48.29
59654;BME280;66556;52.008;5.432;2023-03-22T04:05:11;100681.0;;;21.0;46.32
59654;BME280;66556;52.008;5.432;2023-03-22T04:06:48;100678.0;;;20.98;45.68
59654;BME280;66556;52.008;5.432;2023-03-22T04:10:00;100684.0;;;20.76;46.25
59654;BME280;66556;52.008;5.432;2023-03-22T04:11:36;100680.0;;;21.04;45.89
59654;BME280;66556;52.008;5.432;2023-03-22T04:13:12;100681.0;;;20.98;45.86
59654;BME280;66556;52.008;5.432;2023-03-22T04:16:25;100691.0;;;20.83;45.88
59654;BME280;66556;52.008;5.432;2023-03-22T04:18:01;100680.0;;;20.76;46.17
59654;BME280;66556;52.008;5.432;2023-03-22T04:19:37;100693.0;;;20.48;46.99
59654;BME280;66556;52.008;5.432;2023-03-22T04:21:13;100684.0;;;20.34;47.48
59654;BME280;66556;52.008;5.432;2023-03-22T04:24:25;100691.0;;;20.7;46.89
59654;BME280;66556;52.008;5.432;2023-03-22T04:26:02;100688.0;;;21.02;45.85
59654;BME280;66556;52.008;5.432;2023-03-22T04:27:39;100687.0;;;20.68;46.38
59654;BME280;66556;52.008;5.432;2023-03-22T04:30:54;100678.0;;;20.54;47.31
59654;BME280;66556;52.008;5.432;2023-03-22T04:32:30;100671.0;;;20.34;48.06
59654;BME280;66556;52.008;5.432;2023-03-22T04:34:07;100666.0;;;20.45;47.41
59654;BME280;66556;52.008;5.432;2023-03-22T04:37:19;100659.0;;;20.98;45.71
59654;BME280;66556;52.008;5.432;2023-03-22T04:38:56;100659.0;;;20.47;46.83
59654;BME280;66556;52.008;5.432;2023-03-22T04:40:32;100660.0;;;20.52;46.95
59654;BME280;66556;52.008;5.432;2023-03-22T04:42:09;100653.0;;;21.01;46.0
59654;BME280;66556;52.008;5.432;2023-03-22T04:45:22;100664.0;;;20.41;47.15
59654;BME280;66556;52.008;5.432;2023-03-22T04:46:59;100656.0;;;20.65;46.64
59654;BME280;66556;52.008;5.432;2023-03-22T04:48:36;100651.0;;;21.18;45.46
59654;BME280;66556;52.008;5.432;2023-03-22T04:51:48;100655.0;;;20.41;47.37
59654;BME280;66556;52.008;5.432;2023-03-22T04:53:24;100656.0;;;20.62;46.63
59654;BME280;66556;52.008;5.432;2023-03-22T04:55:01;100650.0;;;20.97;45.92
59654;BME280;66556;52.008;5.432;2023-03-22T04:58:13;100649.0;;;20.46;47.07
59654;BME280;66556;52.008;5.432;2023-03-22T04:59:49;100642.0;;;20.73;46.58
59654;BME280;66556;52.008;5.432;2023-03-22T05:01:25;100642.0;;;20.6;46.98
59654;BME280;66556;52.008;5.432;2023-03-22T05:03:01;100644.0;;;20.73;46.73
59654;BME280;66556;52.008;5.432;2023-03-22T05:06:14;100641.0;;;20.45;47.3
59654;BME280;66556;52.008;5.432;2023-03-22T05:07:51;100641.0;;;20.85;46.02
59654;BME280;66556;52.008;5.432;2023-03-22T05:09:27;100643.0;;;20.46;46.8
59654;BME280;66556;52.008;5.432;2023-03-22T05:12:42;100636.0;;;21.18;44.86
59654;BME280;66556;52.008;5.432;2023-03-22T05:14:18;100636.0;;;20.96;45.51
59654;BME280;66556;52.008;5.432;2023-03-22T05:15:55;100639.0;;;20.82;45.81
59654;BME280;66556;52.008;5.432;2023-03-22T05:19:07;100642.0;;;20.67;46.32
59654;BME280;66556;52.008;5.432;2023-03-22T05:20:43;100644.0;;;20.47;46.28
59654;BME280;66556;52.008;5.432;2023-03-22T05:22:19;100635.0;;;21.01;44.73
59654;BME280;66556;52.008;5.432;2023-03-22T05:23:56;100641.0;;;20.64;45.92
59654;BME280;66556;52.008;5.432;2023-03-22T05:27:08;100642.0;;;20.43;46.33
59654;BME280;66556;52.008;5.432;2023-03-22T05:28:44;100636.0;;;20.11;47.13
59654;BME280;66556;52.008;5.432;2023-03-22T05:30:21;100636.0;;;19.66;48.84
59654;BME280;66556;52.008;5.432;2023-03-22T05:33:33;100632.0;;;20.18;47.33
59654;BME280;66556;52.008;5.432;2023-03-22T05:35:09;100632.0;;;19.88;48.07
59654;BME280;66556;52.008;5.432;2023-03-22T05:36:46;100636.0;;;19.95;47.77
59654;BME280;66556;52.008;5.432;2023-03-22T05:39:59;100627.0;;;19.81;48.1
59654;BME280;66556;52.008;5.432;2023-03-22T05:41:34;100628.0;;;19.84;48.29
59654;BME280;66556;52.008;5.432;2023-03-22T05:43:11;100620.0;;;20.0;47.79
59654;BME280;66556;52.008;5.432;2023-03-22T05:46:23;100628.0;;;19.81;48.12
59654;BME280;66556;52.008;5.432;2023-03-22T05:47:58;100618.0;;;19.66;48.51
59654;BME280;66556;52.008;5.432;2023-03-22T05:49:35;100630.0;;;19.66;48.33
59654;BME280;66556;52.008;5.432;2023-03-22T05:51:13;100630.0;;;20.23;47.03
59654;BME280;66556;52.008;5.432;2023-03-22T05:54:25;100627.0;;;20.12;46.9
59654;BME280;66556;52.008;5.432;2023-03-22T05:56:01;100618.0;;;20.13;47.01
59654;BME280;66556;52.008;5.432;2023-03-22T05:57:38;100616.0;;;20.06;47.03
59654;BME280;66556;52.008;5.432;2023-03-22T06:00:51;100617.0;;;19.97;47.6
59654;BME280;66556;52.008;5.432;2023-03-22T06:02:27;100611.0;;;19.89;47.55
59654;BME280;66556;52.008;5.432;2023-03-22T06:04:03;100611.0;;;19.82;47.86
59654;BME280;66556;52.008;5.432;2023-03-22T06:07:16;100615.0;;;19.95;47.08
59654;BME280;66556;52.008;5.432;2023-03-22T06:08:52;100624.0;;;19.56;48.45
59654;BME280;66556;52.008;5.432;2023-03-22T06:10:28;100617.0;;;19.68;48.28
59654;BME280;66556;52.008;5.432;2023-03-22T06:12:05;100625.0;;;19.79;47.51
59654;BME280;66556;52.008;5.432;2023-03-22T06:15:18;100614.0;;;20.25;46.63
59654;BME280;66556;52.008;5.432;2023-03-22T06:16:54;100621.0;;;19.86;47.17
59654;BME280;66556;52.008;5.432;2023-03-22T06:18:30;100618.0;;;20.11;46.74
59654;BME280;66556;52.008;5.432;2023-03-22T06:21:46;100622.0;;;19.71;47.76
59654;BME280;66556;52.008;5.432;2023-03-22T06:23:22;100621.0;;;19.88;47.46
59654;BME280;66556;52.008;5.432;2023-03-22T06:24:59;100613.0;;;20.09;46.92
59654;BME280;66556;52.008;5.432;2023-03-22T06:28:12;100619.0;;;19.84;47.5
59654;BME280;66556;52.008;5.432;2023-03-22T06:29:48;100618.0;;;20.22;47.18
59654;BME280;66556;52.008;5.432;2023-03-22T06:31:24;100627.0;;;20.12;46.82
59654;BME280;66556;52.008;5.432;2023-03-22T06:33:00;100628.0;;;20.16;46.6
59654;BME280;66556;52.008;5.432;2023-03-22T06:36:12;100618.0;;;19.68;48.05
59654;BME280;66556;52.008;5.432;2023-03-22T06:37:49;100614.0;;;19.96;47.19
59654;BME280;66556;52.008;5.432;2023-03-22T06:39:25;100621.0;;;20.13;46.92
59654;BME280;66556;52.008;5.432;2023-03-22T06:42:37;100617.0;;;20.11;47.11
59654;BME280;66556;52.008;5.432;2023-03-22T06:44:14;100619.0;;;20.09;47.31
59654;BME280;66556;52.008;5.432;2023-03-22T06:45:50;100610.0;;;19.81;47.45
59654;BME280;66556;52.008;5.432;2023-03-22T06:49:03;100608.0;;;20.39;46.75
59654;BME280;66556;52.008;5.432;2023-03-22T06:50:40;100618.0;;;20.41;46.94
59654;BME280;66556;52.008;5.432;2023-03-22T06:52:16;100616.0;;;19.97;47.55
59654;BME280;66556;52.008;5.432;2023-03-22T06:53:52;100622.0;;;20.37;47.0
59654;BME280;66556;52.008;5.432;2023-03-22T06:57:04;100620.0;;;20.62;45.82
59654;BME280;66556;52.008;5.432;2023-03-22T06:58:40;100632.0;;;20.13;46.72
59654;BME280;66556;52.008;5.432;2023-03-22T07:00:17;100621.0;;;20.66;45.55
59654;BME280;66556;52.008;5.432;2023-03-22T07:03:30;100627.0;;;20.25;46.62
59654;BME280;66556;52.008;5.432;2023-03-22T07:05:07;100632.0;;;20.29;46.9
59654;BME280;66556;52.008;5.432;2023-03-22T07:06:43;100626.0;;;20.55;45.94
59654;BME280;66556;52.008;5.432;2023-03-22T07:09:56;100624.0;;;20.31;46.7
59654;BME280;66556;52.008;5.432;2023-03-22T07:11:32;100623.0;;;20.27;46.55
59654;BME280;66556;52.008;5.432;2023-03-22T07:13:08;100619.0;;;20.11;47.4
59654;BME280;66556;52.008;5.432;2023-03-22T07:16:20;100615.0;;;19.87;47.58
59654;BME280;66556;52.008;5.432;2023-03-22T07:17:58;100616.0;;;20.59;46.0
59654;BME280;66556;52.008;5.432;2023-03-22T07:19:34;100616.0;;;20.64;45.87
59654;BME280;66556;52.008;5.432;2023-03-22T07:21:09;100624.0;;;20.3;46.31
59654;BME280;66556;52.008;5.432;2023-03-22T07:24:20;100611.0;;;20.81;44.67
59654;BME280;66556;52.008;5.432;2023-03-22T07:25:56;100615.0;;;20.59;45.25
59654;BME280;66556;52.008;5.432;2023-03-22T07:27:32;100626.0;;;20.18;46.58
59654;BME280;66556;52.008;5.432;2023-03-22T07:30:45;100619.0;;;20.45;45.71
59654;BME280;66556;52.008;5.432;2023-03-22T07:32:21;100613.0;;;20.87;45.09
59654;BME280;66556;52.008;5.432;2023-03-22T07:33:57;100622.0;;;20.46;45.54
59654;BME280;66556;52.008;5.432;2023-03-22T07:37:10;100612.0;;;21.05;44.79
59654;BME280;66556;52.008;5.432;2023-03-22T07:38:46;100622.0;;;20.55;45.69
59654;BME280;66556;52.008;5.432;2023-03-22T07:40:23;100623.0;;;20.45;45.27
59654;BME280;66556;52.008;5.432;2023-03-22T07:42:00;100619.0;;;20.73;45.32
59654;BME280;66556;52.008;5.432;2023-03-22T07:45:12;100619.0;;;20.84;44.96
59654;BME280;66556;52.008;5.432;2023-03-22T07:46:48;100617.0;;;21.1;44.29
59654;BME280;66556;52.008;5.432;2023-03-22T07:48:24;100619.0;;;20.41;45.54
59654;BME280;66556;52.008;5.432;2023-03-22T07:51:37;100625.0;;;20.31;46.38
59654;BME280;66556;52.008;5.432;2023-03-22T07:53:14;100607.0;;;20.81;45.25
59654;BME280;66556;52.008;5.432;2023-03-22T07:54:50;100615.0;;;20.2;45.99
59654;BME280;66556;52.008;5.432;2023-03-22T07:58:02;100627.0;;;20.57;45.45
59654;BME280;66556;52.008;5.432;2023-03-22T07:59:39;100612.0;;;20.95;44.61
59654;BME280;66556;52.008;5.432;2023-03-22T08:01:15;100622.0;;;20.7;44.93
59654;BME280;66556;52.008;5.432;2023-03-22T08:04:27;100616.0;;;21.29;43.58
59654;BME280;66556;52.008;5.432;2023-03-22T08:06:04;100618.0;;;21.08;43.66
59654;BME280;66556;52.008;5.432;2023-03-22T08:07:43;100618.0;;;21.15;43.92
59654;BME280;66556;52.008;5.432;2023-03-22T08:09:19;100613.0;;;21.06;44.06
59654;BME280;66556;52.008;5.432;2023-03-22T08:12:31;100621.0;;;21.06;43.86
59654;BME280;66556;52.008;5.432;2023-03-22T08:14:07;100620.0;;;20.84;44.31
59654;BME280;66556;52.008;5.432;2023-03-22T08:15:44;100618.0;;;20.67;45.9
59654;BME280;66556;52.008;5.432;2023-03-22T08:18:57;100615.0;;;21.49;44.75
59654;BME280;66556;52.008;5.432;2023-03-22T08:20:33;100618.0;;;21.51;43.85
59654;BME280;66556;52.008;5.432;2023-03-22T08:22:09;100621.0;;;21.85;43.31
59654;BME280;66556;52.008;5.432;2023-03-22T08:25:21;100628.0;;;21.53;43.75
59654;BME280;66556;52.008;5.432;2023-03-22T08:26:57;100618.0;;;21.43;44.35
59654;BME280;66556;52.008;5.432;2023-03-22T08:28:34;100621.0;;;21.42;43.63
59654;BME280;66556;52.008;5.432;2023-03-22T08:30:11;100626.0;;;21.7;43.06
59654;BME280;66556;52.008;5.432;2023-03-22T08:33:23;100614.0;;;21.88;43.01
59654;BME280;66556;52.008;5.432;2023-03-22T08:34:59;100606.0;;;21.05;43.69
59654;BME280;66556;52.008;5.432;2023-03-22T08:36:36;100617.0;;;21.96;42.05
59654;BME280;66556;52.008;5.432;2023-03-22T08:39:49;100616.0;;;21.74;42.39
59654;BME280;66556;52.008;5.432;2023-03-22T08:41:26;100618.0;;;20.9;44.41
59654;BME280;66556;52.008;5.432;2023-03-22T08:43:02;100606.0;;;21.83;42.96
59654;BME280;66556;52.008;5.432;2023-03-22T08:46:15;100616.0;;;21.93;42.24
59654;BME280;66556;52.008;5.432;2023-03-22T08:47:51;100608.0;;;22.17;41.84
59654;BME280;66556;52.008;5.432;2023-03-22T08:49:27;100612.0;;;21.68;42.48
59654;BME280;66556;52.008;5.432;2023-03-22T08:51:04;100603.0;;;21.55;41.89
59654;BME280;66556;52.008;5.432;2023-03-22T08:54:17;100606.0;;;21.37;42.97
59654;BME280;66556;52.008;5.432;2023-03-22T08:55:53;100608.0;;;22.22;41.84
59654;BME280;66556;52.008;5.432;2023-03-22T08:57:29;100610.0;;;21.64;41.95
59654;BME280;66556;52.008;5.432;2023-03-22T09:00:43;100602.0;;;21.87;41.86
59654;BME280;66556;52.008;5.432;2023-03-22T09:02:19;100609.0;;;22.23;42.03
59654;BME280;66556;52.008;5.432;2023-03-22T09:03:55;100600.0;;;21.68;42.04
59654;BME280;66556;52.008;5.432;2023-03-22T09:07:08;100605.0;;;22.64;40.01
59654;BME280;66556;52.008;5.432;2023-03-22T09:08:44;100601.0;;;22.34;40.64
59654;BME280;66556;52.008;5.432;2023-03-22T09:10:20;100608.0;;;21.21;41.28
59654;BME280;66556;52.008;5.432;2023-03-22T09:11:56;100602.0;;;21.77;41.23
59654;BME280;66556;52.008;5.432;2023-03-22T09:15:09;100607.0;;;21.23;41.83
59654;BME280;66556;52.008;5.432;2023-03-22T09:16:46;100601.0;;;21.8;41.79
59654;BME280;66556;52.008;5.432;2023-03-22T09:18:23;100602.0;;;21.93;40.94
59654;BME280;66556;52.008;5.432;2023-03-22T09:21:36;100606.0;;;22.21;40.39
59654;BME280;66556;52.008;5.432;2023-03-22T09:24:49;100614.0;;;22.27;40.24
59654;BME280;66556;52.008;5.432;2023-03-22T09:28:03;100607.0;;;21.73;40.86
59654;BME280;66556;52.008;5.432;2023-03-22T09:29:40;100602.0;;;21.51;40.92
59654;BME280;66556;52.008;5.432;2023-03-22T09:31:16;100597.0;;;21.15;42.54
59654;BME280;66556;52.008;5.432;2023-03-22T09:32:52;100608.0;;;21.24;42.34
59654;BME280;66556;52.008;5.432;2023-03-22T09:36:06;100605.0;;;21.07;42.16
59654;BME280;66556;52.008;5.432;2023-03-22T09:37:42;100607.0;;;21.44;42.56
59654;BME280;66556;52.008;5.432;2023-03-22T09:39:18;100610.0;;;20.93;43.95
59654;BME280;66556;52.008;5.432;2023-03-22T09:42:39;100616.0;;;20.82;43.87
59654;BME280;66556;52.008;5.432;2023-03-22T09:44:22;100614.0;;;21.52;42.87
59654;BME280;66556;52.008;5.432;2023-03-22T09:46:03;100611.0;;;21.95;41.93
59654;BME280;66556;52.008;5.432;2023-03-22T09:47:47;100608.0;;;21.9;42.14
59654;BME280;66556;52.008;5.432;2023-03-22T09:51:20;100625.0;;;20.96;44.11
59654;BME280;66556;52.008;5.432;2023-03-22T09:52:59;100609.0;;;21.9;42.26
59654;BME280;66556;52.008;5.432;2023-03-22T09:54:37;100609.0;;;22.2;42.28
59654;BME280;66556;52.008;5.432;2023-03-22T09:56:18;100606.0;;;21.44;43.68
59654;BME280;66556;52.008;5.432;2023-03-22T09:58:02;100598.0;;;21.92;43.18
59654;BME280;66556;52.008;5.432;2023-03-22T10:01:32;100603.0;;;21.5;43.39
59654;BME280;66556;52.008;5.432;2023-03-22T10:03:18;100607.0;;;20.73;45.68
59654;BME280;66556;52.008;5.432;2023-03-22T10:05:08;100605.0;;;21.59;43.86
59654;BME280;66556;52.008;5.432;2023-03-22T10:06:49;100603.0;;;21.31;45.08
59654;BME280;66556;52.008;5.432;2023-03-22T10:08:41;100602.0;;;21.1;44.5
59654;BME280;66556;52.008;5.432;2023-03-22T10:12:00;100607.0;;;21.11;44.78
59654;BME280;66556;52.008;5.432;2023-03-22T10:13:51;100605.0;;;21.21;44.33
59654;BME280;66556;52.008;5.432;2023-03-22T10:15:36;100600.0;;;20.81;45.67
59654;BME280;66556;52.008;5.432;2023-03-22T10:17:15;100593.0;;;21.01;45.58
59654;BME280;66556;52.008;5.432;2023-03-22T10:18:55;100599.0;;;21.08;46.21
59654;BME280;66556;52.008;5.432;2023-03-22T10:22:24;100605.0;;;20.85;46.92
59654;BME280;66556;52.008;5.432;2023-03-22T10:24:09;100596.0;;;20.87;46.46
59654;BME280;66556;52.008;5.432;2023-03-22T10:25:51;100596.0;;;21.27;46.05
59654;BME280;66556;52.008;5.432;2023-03-22T10:27:29;100597.0;;;20.75;47.03
59654;BME280;66556;52.008;5.432;2023-03-22T10:30:53;100614.0;;;20.53;46.95
59654;BME280;66556;52.008;5.432;2023-03-22T10:32:35;100615.0;;;20.34;48.64
59654;BME280;66556;52.008;5.432;2023-03-22T10:34:20;100609.0;;;20.31;48.93
59654;BME280;66556;52.008;5.432;2023-03-22T10:35:58;100609.0;;;20.37;48.54
59654;BME280;66556;52.008;5.432;2023-03-22T10:39:25;100611.0;;;19.98;49.8
59654;BME280;66556;52.008;5.432;2023-03-22T10:41:08;100608.0;;;20.25;49.41
59654;BME280;66556;52.008;5.432;2023-03-22T10:42:51;100610.0;;;20.47;49.22
59654;BME280;66556;52.008;5.432;2023-03-22T10:44:31;100601.0;;;20.62;48.92
59654;BME280;66556;52.008;5.432;2023-03-22T10:46:13;100611.0;;;20.31;49.27
59654;BME280;66556;52.008;5.432;2023-03-22T10:49:37;100607.0;;;20.53;49.22
59654;BME280;66556;52.008;5.432;2023-03-22T10:51:20;100607.0;;;20.5;49.01
59654;BME280;66556;52.008;5.432;2023-03-22T10:53:04;100605.0;;;20.62;49.32
59654;BME280;66556;52.008;5.432;2023-03-22T10:54:42;100601.0;;;20.74;48.66
59654;BME280;66556;52.008;5.432;2023-03-22T10:58:00;100622.0;;;20.02;49.74
59654;BME280;66556;52.008;5.432;2023-03-22T10:59:46;100596.0;;;21.07;48.17
59654;BME280;66556;52.008;5.432;2023-03-22T11:01:27;100609.0;;;20.3;49.4
59654;BME280;66556;52.008;5.432;2023-03-22T11:03:05;100598.0;;;20.87;49.1
59654;BME280;66556;52.008;5.432;2023-03-22T11:06:25;100595.0;;;21.27;48.88
59654;BME280;66556;52.008;5.432;2023-03-22T11:08:02;100594.0;;;20.62;49.31
59654;BME280;66556;52.008;5.432;2023-03-22T11:09:38;100596.0;;;20.79;49.08
59654;BME280;66556;52.008;5.432;2023-03-22T11:11:18;100593.0;;;20.54;50.13
59654;BME280;66556;52.008;5.432;2023-03-22T11:14:49;100596.0;;;20.71;49.74
59654;BME280;66556;52.008;5.432;2023-03-22T11:16:27;100589.0;;;20.69;50.08
59654;BME280;66556;52.008;5.432;2023-03-22T11:18:07;100590.0;;;21.32;48.77